sensor_id;sensor_type;location;lat;lon;timestamp;P1;durP1;ratioP1;P2;durP2;ratioP2
62572;SDS011;48626;51.678;5.806;2022-08-23T00:00:32;11.70;;;4.70;;
62572;SDS011;48626;51.678;5.806;2022-08-23T00:02:58;10.80;;;4.55;;
62572;SDS011;48626;51.678;5.806;2022-08-23T00:05:24;9.20;;;4.38;;
62572;SDS011;48626;51.678;5.806;2022-08-23T00:07:50;12.95;;;4.75;;
62572;SDS011;48626;51.678;5.806;2022-08-23T00:10:16;14.68;;;4.38;;
62572;SDS011;48626;51.678;5.806;2022-08-23T00:12:42;11.57;;;4.03;;
62572;SDS011;48626;51.678;5.806;2022-08-23T00:15:10;10.55;;;4.55;;
62572;SDS011;48626;51.678;5.806;2022-08-23T00:17:38;7.35;;;4.20;;
62572;SDS011;48626;51.678;5.806;2022-08-23T00:20:06;12.73;;;4.47;;
62572;SDS011;48626;51.678;5.806;2022-08-23T00:22:35;11.00;;;4.20;;
62572;SDS011;48626;51.678;5.806;2022-08-23T00:25:02;10.40;;;4.35;;
62572;SDS011;48626;51.678;5.806;2022-08-23T00:27:30;9.27;;;4.03;;
62572;SDS011;48626;51.678;5.806;2022-08-23T00:29:56;10.45;;;4.03;;
62572;SDS011;48626;51.678;5.806;2022-08-23T00:32:26;7.68;;;3.70;;
62572;SDS011;48626;51.678;5.806;2022-08-23T00:34:53;8.30;;;3.63;;
62572;SDS011;48626;51.678;5.806;2022-08-23T00:37:20;7.03;;;3.97;;
62572;SDS011;48626;51.678;5.806;2022-08-23T00:39:46;9.70;;;4.30;;
62572;SDS011;48626;51.678;5.806;2022-08-23T00:42:25;7.88;;;3.78;;
62572;SDS011;48626;51.678;5.806;2022-08-23T00:45:17;11.85;;;3.90;;
62572;SDS011;48626;51.678;5.806;2022-08-23T00:48:06;13.30;;;4.63;;
62572;SDS011;48626;51.678;5.806;2022-08-23T00:50:40;11.55;;;4.20;;
62572;SDS011;48626;51.678;5.806;2022-08-23T00:55:36;8.60;;;4.18;;
62572;SDS011;48626;51.678;5.806;2022-08-23T00:58:04;8.70;;;4.20;;
62572;SDS011;48626;51.678;5.806;2022-08-23T01:00:31;10.98;;;4.47;;
62572;SDS011;48626;51.678;5.806;2022-08-23T01:02:57;13.00;;;4.50;;
62572;SDS011;48626;51.678;5.806;2022-08-23T01:05:25;9.57;;;4.05;;
62572;SDS011;48626;51.678;5.806;2022-08-23T01:07:56;11.50;;;4.68;;
62572;SDS011;48626;51.678;5.806;2022-08-23T01:10:26;11.30;;;4.60;;
62572;SDS011;48626;51.678;5.806;2022-08-23T01:13:08;10.43;;;4.57;;
62572;SDS011;48626;51.678;5.806;2022-08-23T01:15:48;9.13;;;4.70;;
62572;SDS011;48626;51.678;5.806;2022-08-23T01:18:18;10.70;;;4.35;;
62572;SDS011;48626;51.678;5.806;2022-08-23T01:26:16;10.50;;;4.20;;
62572;SDS011;48626;51.678;5.806;2022-08-23T01:28:43;8.73;;;4.63;;
62572;SDS011;48626;51.678;5.806;2022-08-23T01:31:09;9.05;;;4.22;;
62572;SDS011;48626;51.678;5.806;2022-08-23T01:33:36;12.35;;;4.60;;
62572;SDS011;48626;51.678;5.806;2022-08-23T01:36:04;12.82;;;4.93;;
62572;SDS011;48626;51.678;5.806;2022-08-23T01:38:32;9.80;;;4.93;;
62572;SDS011;48626;51.678;5.806;2022-08-23T01:40:58;11.57;;;5.10;;
62572;SDS011;48626;51.678;5.806;2022-08-23T01:43:24;10.05;;;5.10;;
62572;SDS011;48626;51.678;5.806;2022-08-23T01:45:50;15.75;;;4.97;;
62572;SDS011;48626;51.678;5.806;2022-08-23T01:48:17;10.25;;;4.60;;
62572;SDS011;48626;51.678;5.806;2022-08-23T01:50:43;9.70;;;5.13;;
62572;SDS011;48626;51.678;5.806;2022-08-23T01:53:09;11.98;;;5.05;;
62572;SDS011;48626;51.678;5.806;2022-08-23T01:55:36;7.30;;;4.70;;
62572;SDS011;48626;51.678;5.806;2022-08-23T01:58:04;16.17;;;5.00;;
62572;SDS011;48626;51.678;5.806;2022-08-23T02:00:32;11.52;;;4.93;;
62572;SDS011;48626;51.678;5.806;2022-08-23T02:03:00;9.25;;;4.72;;
62572;SDS011;48626;51.678;5.806;2022-08-23T02:05:27;9.43;;;4.93;;
62572;SDS011;48626;51.678;5.806;2022-08-23T02:07:53;9.00;;;4.65;;
62572;SDS011;48626;51.678;5.806;2022-08-23T02:10:19;12.15;;;5.57;;
62572;SDS011;48626;51.678;5.806;2022-08-23T02:12:46;11.68;;;5.60;;
62572;SDS011;48626;51.678;5.806;2022-08-23T02:15:13;10.38;;;4.95;;
62572;SDS011;48626;51.678;5.806;2022-08-23T02:17:39;15.32;;;5.57;;
62572;SDS011;48626;51.678;5.806;2022-08-23T02:20:06;11.80;;;4.70;;
62572;SDS011;48626;51.678;5.806;2022-08-23T02:22:32;11.65;;;5.07;;
62572;SDS011;48626;51.678;5.806;2022-08-23T02:24:58;9.60;;;4.70;;
62572;SDS011;48626;51.678;5.806;2022-08-23T02:27:25;8.70;;;5.43;;
62572;SDS011;48626;51.678;5.806;2022-08-23T02:29:51;12.07;;;5.50;;
62572;SDS011;48626;51.678;5.806;2022-08-23T02:32:17;8.75;;;5.38;;
62572;SDS011;48626;51.678;5.806;2022-08-23T02:34:43;13.65;;;5.85;;
62572;SDS011;48626;51.678;5.806;2022-08-23T02:37:10;14.30;;;5.82;;
62572;SDS011;48626;51.678;5.806;2022-08-23T02:39:38;10.45;;;5.85;;
62572;SDS011;48626;51.678;5.806;2022-08-23T02:42:05;15.90;;;6.28;;
62572;SDS011;48626;51.678;5.806;2022-08-23T02:44:30;14.85;;;6.75;;
62572;SDS011;48626;51.678;5.806;2022-08-23T02:46:58;14.57;;;7.22;;
62572;SDS011;48626;51.678;5.806;2022-08-23T02:49:25;10.52;;;6.70;;
62572;SDS011;48626;51.678;5.806;2022-08-23T02:51:51;12.55;;;6.25;;
62572;SDS011;48626;51.678;5.806;2022-08-23T02:54:17;12.50;;;6.93;;
62572;SDS011;48626;51.678;5.806;2022-08-23T02:56:43;11.18;;;6.75;;
62572;SDS011;48626;51.678;5.806;2022-08-23T02:59:09;14.85;;;7.57;;
62572;SDS011;48626;51.678;5.806;2022-08-23T03:01:36;14.40;;;7.82;;
62572;SDS011;48626;51.678;5.806;2022-08-23T03:04:03;11.88;;;7.93;;
62572;SDS011;48626;51.678;5.806;2022-08-23T03:06:30;14.25;;;7.75;;
62572;SDS011;48626;51.678;5.806;2022-08-23T03:08:56;16.10;;;8.07;;
62572;SDS011;48626;51.678;5.806;2022-08-23T03:11:23;12.65;;;8.32;;
62572;SDS011;48626;51.678;5.806;2022-08-23T03:13:49;11.63;;;7.30;;
62572;SDS011;48626;51.678;5.806;2022-08-23T03:16:16;15.35;;;7.28;;
62572;SDS011;48626;51.678;5.806;2022-08-23T03:18:42;13.35;;;8.00;;
62572;SDS011;48626;51.678;5.806;2022-08-23T03:21:08;14.70;;;7.82;;
62572;SDS011;48626;51.678;5.806;2022-08-23T03:23:34;18.02;;;8.13;;
62572;SDS011;48626;51.678;5.806;2022-08-23T03:26:02;11.98;;;7.35;;
62572;SDS011;48626;51.678;5.806;2022-08-23T03:28:28;20.13;;;7.93;;
62572;SDS011;48626;51.678;5.806;2022-08-23T03:30:55;13.00;;;7.57;;
62572;SDS011;48626;51.678;5.806;2022-08-23T03:33:21;13.18;;;8.00;;
62572;SDS011;48626;51.678;5.806;2022-08-23T03:35:48;12.48;;;7.03;;
62572;SDS011;48626;51.678;5.806;2022-08-23T03:38:14;11.38;;;7.53;;
62572;SDS011;48626;51.678;5.806;2022-08-23T03:40:40;18.50;;;7.68;;
62572;SDS011;48626;51.678;5.806;2022-08-23T03:43:06;12.00;;;7.38;;
62572;SDS011;48626;51.678;5.806;2022-08-23T03:45:32;13.73;;;7.32;;
62572;SDS011;48626;51.678;5.806;2022-08-23T03:47:57;15.05;;;7.80;;
62572;SDS011;48626;51.678;5.806;2022-08-23T03:50:23;11.30;;;7.35;;
62572;SDS011;48626;51.678;5.806;2022-08-23T03:52:49;12.15;;;7.38;;
62572;SDS011;48626;51.678;5.806;2022-08-23T03:55:15;15.50;;;8.10;;
62572;SDS011;48626;51.678;5.806;2022-08-23T03:57:41;11.10;;;7.80;;
62572;SDS011;48626;51.678;5.806;2022-08-23T04:00:07;15.98;;;7.60;;
62572;SDS011;48626;51.678;5.806;2022-08-23T04:02:35;16.85;;;8.25;;
62572;SDS011;48626;51.678;5.806;2022-08-23T04:05:01;14.90;;;8.10;;
62572;SDS011;48626;51.678;5.806;2022-08-23T04:07:27;20.55;;;8.98;;
62572;SDS011;48626;51.678;5.806;2022-08-23T04:09:53;26.48;;;8.57;;
62572;SDS011;48626;51.678;5.806;2022-08-23T04:12:19;18.30;;;8.93;;
62572;SDS011;48626;51.678;5.806;2022-08-23T04:14:47;25.42;;;8.43;;
62572;SDS011;48626;51.678;5.806;2022-08-23T04:17:13;16.13;;;8.68;;
62572;SDS011;48626;51.678;5.806;2022-08-23T04:19:39;15.73;;;8.27;;
62572;SDS011;48626;51.678;5.806;2022-08-23T04:22:08;13.25;;;7.78;;
62572;SDS011;48626;51.678;5.806;2022-08-23T04:24:39;18.00;;;8.65;;
62572;SDS011;48626;51.678;5.806;2022-08-23T04:27:06;14.25;;;8.80;;
62572;SDS011;48626;51.678;5.806;2022-08-23T04:29:32;21.77;;;9.27;;
62572;SDS011;48626;51.678;5.806;2022-08-23T04:31:58;12.20;;;8.05;;
62572;SDS011;48626;51.678;5.806;2022-08-23T04:34:24;13.10;;;8.13;;
62572;SDS011;48626;51.678;5.806;2022-08-23T04:36:51;16.73;;;9.30;;
62572;SDS011;48626;51.678;5.806;2022-08-23T04:39:17;17.85;;;9.23;;
62572;SDS011;48626;51.678;5.806;2022-08-23T04:41:43;16.48;;;8.70;;
62572;SDS011;48626;51.678;5.806;2022-08-23T04:44:27;15.65;;;8.50;;
62572;SDS011;48626;51.678;5.806;2022-08-23T04:46:53;20.08;;;8.38;;
62572;SDS011;48626;51.678;5.806;2022-08-23T04:49:18;17.88;;;8.80;;
62572;SDS011;48626;51.678;5.806;2022-08-23T04:51:45;12.02;;;8.35;;
62572;SDS011;48626;51.678;5.806;2022-08-23T04:54:11;17.83;;;8.98;;
62572;SDS011;48626;51.678;5.806;2022-08-23T04:56:37;12.35;;;8.20;;
62572;SDS011;48626;51.678;5.806;2022-08-23T04:59:03;17.00;;;8.52;;
62572;SDS011;48626;51.678;5.806;2022-08-23T05:01:30;19.50;;;9.43;;
62572;SDS011;48626;51.678;5.806;2022-08-23T05:03:56;14.82;;;8.98;;
62572;SDS011;48626;51.678;5.806;2022-08-23T05:06:22;18.65;;;8.85;;
62572;SDS011;48626;51.678;5.806;2022-08-23T05:08:47;13.48;;;8.70;;
62572;SDS011;48626;51.678;5.806;2022-08-23T05:11:13;17.77;;;9.15;;
62572;SDS011;48626;51.678;5.806;2022-08-23T05:13:39;15.77;;;9.05;;
62572;SDS011;48626;51.678;5.806;2022-08-23T05:16:05;16.17;;;9.70;;
62572;SDS011;48626;51.678;5.806;2022-08-23T05:18:31;15.35;;;9.68;;
62572;SDS011;48626;51.678;5.806;2022-08-23T05:20:57;20.95;;;9.68;;
62572;SDS011;48626;51.678;5.806;2022-08-23T05:23:23;15.05;;;9.60;;
62572;SDS011;48626;51.678;5.806;2022-08-23T05:25:51;16.73;;;10.05;;
62572;SDS011;48626;51.678;5.806;2022-08-23T05:28:28;15.20;;;10.00;;
62572;SDS011;48626;51.678;5.806;2022-08-23T05:31:02;19.95;;;10.65;;
62572;SDS011;48626;51.678;5.806;2022-08-23T05:33:31;13.45;;;9.77;;
62572;SDS011;48626;51.678;5.806;2022-08-23T05:35:58;14.32;;;9.68;;
62572;SDS011;48626;51.678;5.806;2022-08-23T05:38:26;15.35;;;10.15;;
62572;SDS011;48626;51.678;5.806;2022-08-23T05:40:52;21.08;;;10.98;;
62572;SDS011;48626;51.678;5.806;2022-08-23T05:43:20;22.92;;;11.63;;
62572;SDS011;48626;51.678;5.806;2022-08-23T05:45:46;18.83;;;11.02;;
62572;SDS011;48626;51.678;5.806;2022-08-23T05:48:13;24.08;;;12.02;;
62572;SDS011;48626;51.678;5.806;2022-08-23T05:50:39;17.73;;;10.60;;
62572;SDS011;48626;51.678;5.806;2022-08-23T05:53:06;20.25;;;11.70;;
62572;SDS011;48626;51.678;5.806;2022-08-23T05:55:34;19.65;;;11.77;;
62572;SDS011;48626;51.678;5.806;2022-08-23T05:58:00;23.92;;;11.98;;
62572;SDS011;48626;51.678;5.806;2022-08-23T06:00:26;17.25;;;11.82;;
62572;SDS011;48626;51.678;5.806;2022-08-23T06:02:52;19.58;;;11.88;;
62572;SDS011;48626;51.678;5.806;2022-08-23T06:05:19;18.98;;;11.63;;
62572;SDS011;48626;51.678;5.806;2022-08-23T06:07:45;18.15;;;12.20;;
62572;SDS011;48626;51.678;5.806;2022-08-23T06:10:10;18.42;;;12.07;;
62572;SDS011;48626;51.678;5.806;2022-08-23T06:12:36;19.65;;;12.60;;
62572;SDS011;48626;51.678;5.806;2022-08-23T06:15:02;18.67;;;12.00;;
62572;SDS011;48626;51.678;5.806;2022-08-23T06:17:28;20.52;;;13.02;;
62572;SDS011;48626;51.678;5.806;2022-08-23T06:19:54;22.48;;;12.93;;
62572;SDS011;48626;51.678;5.806;2022-08-23T06:22:20;17.75;;;13.05;;
62572;SDS011;48626;51.678;5.806;2022-08-23T06:24:46;23.23;;;13.63;;
62572;SDS011;48626;51.678;5.806;2022-08-23T06:27:12;26.60;;;13.35;;
62572;SDS011;48626;51.678;5.806;2022-08-23T06:29:38;19.90;;;13.13;;
62572;SDS011;48626;51.678;5.806;2022-08-23T06:32:04;27.13;;;13.98;;
62572;SDS011;48626;51.678;5.806;2022-08-23T06:34:31;21.75;;;13.98;;
62572;SDS011;48626;51.678;5.806;2022-08-23T06:37:02;19.00;;;14.02;;
62572;SDS011;48626;51.678;5.806;2022-08-23T06:39:33;24.23;;;14.68;;
62572;SDS011;48626;51.678;5.806;2022-08-23T06:42:04;17.95;;;13.82;;
62572;SDS011;48626;51.678;5.806;2022-08-23T06:44:32;22.17;;;11.75;;
62572;SDS011;48626;51.678;5.806;2022-08-23T06:46:59;23.50;;;12.30;;
62572;SDS011;48626;51.678;5.806;2022-08-23T06:49:25;19.58;;;11.32;;
62572;SDS011;48626;51.678;5.806;2022-08-23T06:51:52;20.00;;;13.40;;
62572;SDS011;48626;51.678;5.806;2022-08-23T06:54:21;22.50;;;14.50;;
62572;SDS011;48626;51.678;5.806;2022-08-23T06:56:49;29.35;;;14.40;;
62572;SDS011;48626;51.678;5.806;2022-08-23T06:59:15;24.35;;;14.65;;
62572;SDS011;48626;51.678;5.806;2022-08-23T07:01:53;20.42;;;14.02;;
62572;SDS011;48626;51.678;5.806;2022-08-23T07:04:24;20.17;;;14.32;;
62572;SDS011;48626;51.678;5.806;2022-08-23T07:06:53;23.55;;;14.75;;
62572;SDS011;48626;51.678;5.806;2022-08-23T07:09:19;28.33;;;15.45;;
62572;SDS011;48626;51.678;5.806;2022-08-23T07:11:45;23.38;;;14.95;;
62572;SDS011;48626;51.678;5.806;2022-08-23T07:14:12;24.63;;;13.77;;
62572;SDS011;48626;51.678;5.806;2022-08-23T07:16:44;31.15;;;15.35;;
62572;SDS011;48626;51.678;5.806;2022-08-23T07:19:12;22.25;;;14.57;;
62572;SDS011;48626;51.678;5.806;2022-08-23T07:21:38;25.45;;;14.77;;
62572;SDS011;48626;51.678;5.806;2022-08-23T07:24:05;25.52;;;15.02;;
62572;SDS011;48626;51.678;5.806;2022-08-23T07:26:31;25.75;;;16.08;;
62572;SDS011;48626;51.678;5.806;2022-08-23T07:28:57;34.08;;;15.50;;
62572;SDS011;48626;51.678;5.806;2022-08-23T07:31:27;27.15;;;15.00;;
62572;SDS011;48626;51.678;5.806;2022-08-23T07:33:55;27.50;;;15.63;;
62572;SDS011;48626;51.678;5.806;2022-08-23T07:36:22;23.27;;;14.48;;
62572;SDS011;48626;51.678;5.806;2022-08-23T07:38:50;22.65;;;14.52;;
62572;SDS011;48626;51.678;5.806;2022-08-23T07:41:17;23.92;;;13.05;;
62572;SDS011;48626;51.678;5.806;2022-08-23T07:43:44;20.15;;;11.80;;
62572;SDS011;48626;51.678;5.806;2022-08-23T07:46:10;23.27;;;12.40;;
62572;SDS011;48626;51.678;5.806;2022-08-23T07:48:36;24.50;;;11.77;;
62572;SDS011;48626;51.678;5.806;2022-08-23T07:51:04;22.85;;;11.00;;
62572;SDS011;48626;51.678;5.806;2022-08-23T07:53:32;23.17;;;11.18;;
62572;SDS011;48626;51.678;5.806;2022-08-23T07:55:58;25.30;;;10.73;;
62572;SDS011;48626;51.678;5.806;2022-08-23T07:58:28;20.42;;;11.13;;
62572;SDS011;48626;51.678;5.806;2022-08-23T08:00:54;23.90;;;10.93;;
62572;SDS011;48626;51.678;5.806;2022-08-23T08:03:20;19.08;;;10.60;;
62572;SDS011;48626;51.678;5.806;2022-08-23T08:05:45;19.23;;;11.52;;
62572;SDS011;48626;51.678;5.806;2022-08-23T08:08:12;23.90;;;11.52;;
62572;SDS011;48626;51.678;5.806;2022-08-23T08:10:38;20.55;;;11.90;;
62572;SDS011;48626;51.678;5.806;2022-08-23T08:13:05;22.80;;;11.70;;
62572;SDS011;48626;51.678;5.806;2022-08-23T08:15:32;17.65;;;11.80;;
62572;SDS011;48626;51.678;5.806;2022-08-23T08:17:57;23.73;;;11.77;;
62572;SDS011;48626;51.678;5.806;2022-08-23T08:20:23;23.00;;;12.57;;
62572;SDS011;48626;51.678;5.806;2022-08-23T08:22:50;17.15;;;12.55;;
62572;SDS011;48626;51.678;5.806;2022-08-23T08:25:17;21.35;;;12.68;;
62572;SDS011;48626;51.678;5.806;2022-08-23T08:27:42;30.58;;;13.05;;
62572;SDS011;48626;51.678;5.806;2022-08-23T08:30:09;27.75;;;12.45;;
62572;SDS011;48626;51.678;5.806;2022-08-23T08:32:37;20.23;;;12.10;;
62572;SDS011;48626;51.678;5.806;2022-08-23T08:35:03;22.90;;;11.23;;
62572;SDS011;48626;51.678;5.806;2022-08-23T08:37:29;23.98;;;13.00;;
62572;SDS011;48626;51.678;5.806;2022-08-23T08:39:56;19.85;;;12.48;;
62572;SDS011;48626;51.678;5.806;2022-08-23T08:44:57;24.48;;;16.13;;
62572;SDS011;48626;51.678;5.806;2022-08-23T08:50:20;27.92;;;15.57;;
62572;SDS011;48626;51.678;5.806;2022-08-23T08:53:01;31.60;;;16.13;;
62572;SDS011;48626;51.678;5.806;2022-08-23T08:55:41;27.15;;;15.85;;
62572;SDS011;48626;51.678;5.806;2022-08-23T08:58:35;31.45;;;15.85;;
62572;SDS011;48626;51.678;5.806;2022-08-23T09:01:16;24.75;;;14.52;;
62572;SDS011;48626;51.678;5.806;2022-08-23T09:03:43;30.85;;;14.18;;
62572;SDS011;48626;51.678;5.806;2022-08-23T09:06:14;33.75;;;14.60;;
62572;SDS011;48626;51.678;5.806;2022-08-23T09:08:51;22.65;;;13.85;;
62572;SDS011;48626;51.678;5.806;2022-08-23T09:11:35;21.13;;;13.35;;
62572;SDS011;48626;51.678;5.806;2022-08-23T09:14:23;27.35;;;13.52;;
62572;SDS011;48626;51.678;5.806;2022-08-23T09:19:43;25.85;;;13.40;;
62572;SDS011;48626;51.678;5.806;2022-08-23T09:22:13;25.08;;;13.07;;
62572;SDS011;48626;51.678;5.806;2022-08-23T09:24:42;26.83;;;13.23;;
62572;SDS011;48626;51.678;5.806;2022-08-23T09:27:08;26.63;;;12.98;;
62572;SDS011;48626;51.678;5.806;2022-08-23T09:29:35;21.00;;;12.90;;
62572;SDS011;48626;51.678;5.806;2022-08-23T09:32:04;23.50;;;13.17;;
62572;SDS011;48626;51.678;5.806;2022-08-23T09:34:45;22.50;;;13.95;;
62572;SDS011;48626;51.678;5.806;2022-08-23T09:37:12;26.20;;;13.25;;
62572;SDS011;48626;51.678;5.806;2022-08-23T09:44:52;36.15;;;12.65;;
62572;SDS011;48626;51.678;5.806;2022-08-23T09:47:18;32.85;;;13.10;;
62572;SDS011;48626;51.678;5.806;2022-08-23T09:49:44;22.67;;;13.98;;
62572;SDS011;48626;51.678;5.806;2022-08-23T09:52:31;17.90;;;10.52;;
62572;SDS011;48626;51.678;5.806;2022-08-23T09:55:01;16.67;;;8.50;;
62572;SDS011;48626;51.678;5.806;2022-08-23T09:57:30;23.02;;;8.45;;
62572;SDS011;48626;51.678;5.806;2022-08-23T10:00:20;17.80;;;8.38;;
62572;SDS011;48626;51.678;5.806;2022-08-23T10:02:49;18.20;;;7.93;;
62572;SDS011;48626;51.678;5.806;2022-08-23T10:07:54;15.98;;;7.85;;
62572;SDS011;48626;51.678;5.806;2022-08-23T10:10:29;15.25;;;7.25;;
62572;SDS011;48626;51.678;5.806;2022-08-23T10:13:11;13.13;;;5.90;;
62572;SDS011;48626;51.678;5.806;2022-08-23T10:21:06;14.35;;;6.55;;
62572;SDS011;48626;51.678;5.806;2022-08-23T10:26:37;16.35;;;5.70;;
62572;SDS011;48626;51.678;5.806;2022-08-23T10:38:01;14.50;;;5.20;;
62572;SDS011;48626;51.678;5.806;2022-08-23T10:46:12;8.57;;;4.20;;
62572;SDS011;48626;51.678;5.806;2022-08-23T10:48:46;13.68;;;5.05;;
62572;SDS011;48626;51.678;5.806;2022-08-23T10:54:07;10.77;;;4.50;;
62572;SDS011;48626;51.678;5.806;2022-08-23T10:56:37;14.13;;;4.82;;
62572;SDS011;48626;51.678;5.806;2022-08-23T10:59:08;10.45;;;4.07;;
62572;SDS011;48626;51.678;5.806;2022-08-23T11:01:47;10.70;;;3.80;;
62572;SDS011;48626;51.678;5.806;2022-08-23T11:06:55;12.88;;;4.32;;
62572;SDS011;48626;51.678;5.806;2022-08-23T11:17:04;10.82;;;3.67;;
62572;SDS011;48626;51.678;5.806;2022-08-23T11:24:48;9.43;;;3.55;;
62572;SDS011;48626;51.678;5.806;2022-08-23T11:27:24;9.82;;;3.88;;
62572;SDS011;48626;51.678;5.806;2022-08-23T11:43:39;13.47;;;4.17;;
62572;SDS011;48626;51.678;5.806;2022-08-23T11:51:41;9.00;;;3.60;;
62572;SDS011;48626;51.678;5.806;2022-08-23T11:57:12;8.32;;;3.65;;
62572;SDS011;48626;51.678;5.806;2022-08-23T12:05:28;7.70;;;3.28;;
62572;SDS011;48626;51.678;5.806;2022-08-23T12:18:28;9.32;;;3.35;;
62572;SDS011;48626;51.678;5.806;2022-08-23T12:20:57;6.25;;;3.10;;
62572;SDS011;48626;51.678;5.806;2022-08-23T12:23:24;9.27;;;3.70;;
62572;SDS011;48626;51.678;5.806;2022-08-23T12:25:57;12.68;;;3.25;;
62572;SDS011;48626;51.678;5.806;2022-08-23T12:28:51;9.98;;;3.53;;
62572;SDS011;48626;51.678;5.806;2022-08-23T12:31:31;12.73;;;3.80;;
62572;SDS011;48626;51.678;5.806;2022-08-23T12:34:17;11.13;;;3.17;;
62572;SDS011;48626;51.678;5.806;2022-08-23T12:37:05;8.20;;;3.08;;
62572;SDS011;48626;51.678;5.806;2022-08-23T12:39:58;10.35;;;3.28;;
62572;SDS011;48626;51.678;5.806;2022-08-23T12:45:14;10.05;;;3.15;;
62572;SDS011;48626;51.678;5.806;2022-08-23T12:47:55;9.10;;;3.00;;
62572;SDS011;48626;51.678;5.806;2022-08-23T12:50:29;9.63;;;3.30;;
62572;SDS011;48626;51.678;5.806;2022-08-23T12:53:07;6.75;;;3.05;;
62572;SDS011;48626;51.678;5.806;2022-08-23T12:55:44;7.65;;;3.28;;
62572;SDS011;48626;51.678;5.806;2022-08-23T12:58:13;9.98;;;3.25;;
62572;SDS011;48626;51.678;5.806;2022-08-23T13:00:49;6.93;;;3.10;;
62572;SDS011;48626;51.678;5.806;2022-08-23T13:05:56;7.38;;;3.00;;
62572;SDS011;48626;51.678;5.806;2022-08-23T13:08:26;6.10;;;2.92;;
62572;SDS011;48626;51.678;5.806;2022-08-23T13:11:05;8.40;;;3.13;;
62572;SDS011;48626;51.678;5.806;2022-08-23T13:13:32;9.52;;;3.22;;
62572;SDS011;48626;51.678;5.806;2022-08-23T13:15:59;8.45;;;3.30;;
62572;SDS011;48626;51.678;5.806;2022-08-23T13:18:45;8.73;;;3.50;;
62572;SDS011;48626;51.678;5.806;2022-08-23T13:21:30;7.22;;;3.08;;
62572;SDS011;48626;51.678;5.806;2022-08-23T13:23:57;9.25;;;3.50;;
62572;SDS011;48626;51.678;5.806;2022-08-23T13:26:33;9.05;;;3.38;;
62572;SDS011;48626;51.678;5.806;2022-08-23T13:29:07;10.82;;;3.40;;
62572;SDS011;48626;51.678;5.806;2022-08-23T13:31:53;5.75;;;3.00;;
62572;SDS011;48626;51.678;5.806;2022-08-23T13:34:39;7.10;;;3.30;;
62572;SDS011;48626;51.678;5.806;2022-08-23T13:37:20;7.85;;;2.90;;
62572;SDS011;48626;51.678;5.806;2022-08-23T13:39:57;8.50;;;3.03;;
62572;SDS011;48626;51.678;5.806;2022-08-23T13:42:42;9.37;;;2.90;;
62572;SDS011;48626;51.678;5.806;2022-08-23T13:45:15;8.70;;;3.38;;
62572;SDS011;48626;51.678;5.806;2022-08-23T13:47:48;10.88;;;3.55;;
62572;SDS011;48626;51.678;5.806;2022-08-23T13:50:23;8.52;;;3.03;;
62572;SDS011;48626;51.678;5.806;2022-08-23T13:52:52;5.45;;;2.85;;
62572;SDS011;48626;51.678;5.806;2022-08-23T13:55:18;10.73;;;3.70;;
62572;SDS011;48626;51.678;5.806;2022-08-23T13:57:43;6.05;;;3.38;;
62572;SDS011;48626;51.678;5.806;2022-08-23T14:00:09;6.93;;;3.08;;
62572;SDS011;48626;51.678;5.806;2022-08-23T14:02:36;5.20;;;2.55;;
62572;SDS011;48626;51.678;5.806;2022-08-23T14:05:05;6.35;;;2.70;;
62572;SDS011;48626;51.678;5.806;2022-08-23T14:07:32;6.47;;;2.58;;
62572;SDS011;48626;51.678;5.806;2022-08-23T14:09:58;6.93;;;2.60;;
62572;SDS011;48626;51.678;5.806;2022-08-23T14:12:25;5.93;;;2.72;;
62572;SDS011;48626;51.678;5.806;2022-08-23T14:14:53;11.23;;;3.28;;
62572;SDS011;48626;51.678;5.806;2022-08-23T14:17:19;10.32;;;2.50;;
62572;SDS011;48626;51.678;5.806;2022-08-23T14:19:45;6.68;;;2.75;;
62572;SDS011;48626;51.678;5.806;2022-08-23T14:22:11;5.22;;;3.00;;
62572;SDS011;48626;51.678;5.806;2022-08-23T14:24:38;7.05;;;3.10;;
62572;SDS011;48626;51.678;5.806;2022-08-23T14:27:05;7.07;;;2.67;;
62572;SDS011;48626;51.678;5.806;2022-08-23T14:29:32;4.13;;;2.67;;
62572;SDS011;48626;51.678;5.806;2022-08-23T14:31:57;6.18;;;2.78;;
62572;SDS011;48626;51.678;5.806;2022-08-23T14:34:25;7.60;;;2.63;;
62572;SDS011;48626;51.678;5.806;2022-08-23T14:36:51;6.82;;;2.70;;
62572;SDS011;48626;51.678;5.806;2022-08-23T14:39:20;6.72;;;2.60;;
62572;SDS011;48626;51.678;5.806;2022-08-23T14:41:47;10.68;;;2.97;;
62572;SDS011;48626;51.678;5.806;2022-08-23T14:44:13;7.63;;;2.70;;
62572;SDS011;48626;51.678;5.806;2022-08-23T14:46:40;9.75;;;4.60;;
62572;SDS011;48626;51.678;5.806;2022-08-23T14:49:07;10.18;;;2.97;;
62572;SDS011;48626;51.678;5.806;2022-08-23T14:51:35;5.72;;;3.65;;
62572;SDS011;48626;51.678;5.806;2022-08-23T14:54:04;9.45;;;3.28;;
62572;SDS011;48626;51.678;5.806;2022-08-23T14:56:31;8.13;;;2.90;;
62572;SDS011;48626;51.678;5.806;2022-08-23T14:58:58;7.32;;;2.70;;
62572;SDS011;48626;51.678;5.806;2022-08-23T15:01:23;4.45;;;2.50;;
62572;SDS011;48626;51.678;5.806;2022-08-23T15:03:49;4.55;;;2.65;;
62572;SDS011;48626;51.678;5.806;2022-08-23T15:06:16;5.30;;;2.90;;
62572;SDS011;48626;51.678;5.806;2022-08-23T15:08:43;7.25;;;2.65;;
62572;SDS011;48626;51.678;5.806;2022-08-23T15:11:09;7.97;;;3.05;;
62572;SDS011;48626;51.678;5.806;2022-08-23T15:13:36;6.57;;;2.88;;
62572;SDS011;48626;51.678;5.806;2022-08-23T15:16:06;7.05;;;3.78;;
62572;SDS011;48626;51.678;5.806;2022-08-23T15:18:34;4.97;;;2.90;;
62572;SDS011;48626;51.678;5.806;2022-08-23T15:21:01;9.80;;;3.13;;
62572;SDS011;48626;51.678;5.806;2022-08-23T15:23:28;8.50;;;3.10;;
62572;SDS011;48626;51.678;5.806;2022-08-23T15:25:53;7.38;;;2.70;;
62572;SDS011;48626;51.678;5.806;2022-08-23T15:28:20;9.43;;;2.70;;
62572;SDS011;48626;51.678;5.806;2022-08-23T15:30:47;13.80;;;3.47;;
62572;SDS011;48626;51.678;5.806;2022-08-23T15:33:14;6.20;;;3.00;;
62572;SDS011;48626;51.678;5.806;2022-08-23T15:35:41;7.65;;;2.63;;
62572;SDS011;48626;51.678;5.806;2022-08-23T15:38:09;8.00;;;3.47;;
62572;SDS011;48626;51.678;5.806;2022-08-23T15:40:37;7.03;;;3.43;;
62572;SDS011;48626;51.678;5.806;2022-08-23T15:43:03;9.73;;;3.92;;
62572;SDS011;48626;51.678;5.806;2022-08-23T15:45:29;6.90;;;3.40;;
62572;SDS011;48626;51.678;5.806;2022-08-23T15:47:56;9.25;;;2.88;;
62572;SDS011;48626;51.678;5.806;2022-08-23T15:50:24;4.97;;;2.42;;
62572;SDS011;48626;51.678;5.806;2022-08-23T15:52:53;6.03;;;2.67;;
62572;SDS011;48626;51.678;5.806;2022-08-23T15:55:18;7.13;;;2.60;;
62572;SDS011;48626;51.678;5.806;2022-08-23T15:57:46;9.55;;;3.13;;
62572;SDS011;48626;51.678;5.806;2022-08-23T16:00:15;17.55;;;8.35;;
62572;SDS011;48626;51.678;5.806;2022-08-23T16:02:42;9.40;;;3.30;;
62572;SDS011;48626;51.678;5.806;2022-08-23T16:05:09;9.50;;;2.83;;
62572;SDS011;48626;51.678;5.806;2022-08-23T16:07:35;6.22;;;2.97;;
62572;SDS011;48626;51.678;5.806;2022-08-23T16:10:03;6.38;;;2.88;;
62572;SDS011;48626;51.678;5.806;2022-08-23T16:12:30;7.43;;;2.70;;
62572;SDS011;48626;51.678;5.806;2022-08-23T16:14:56;8.18;;;2.80;;
62572;SDS011;48626;51.678;5.806;2022-08-23T16:17:22;5.38;;;2.60;;
62572;SDS011;48626;51.678;5.806;2022-08-23T16:19:48;5.07;;;2.60;;
62572;SDS011;48626;51.678;5.806;2022-08-23T16:22:13;5.43;;;2.70;;
62572;SDS011;48626;51.678;5.806;2022-08-23T16:24:39;8.68;;;2.60;;
62572;SDS011;48626;51.678;5.806;2022-08-23T16:27:05;5.60;;;2.40;;
62572;SDS011;48626;51.678;5.806;2022-08-23T16:29:32;6.25;;;2.40;;
62572;SDS011;48626;51.678;5.806;2022-08-23T16:32:00;4.07;;;2.55;;
62572;SDS011;48626;51.678;5.806;2022-08-23T16:34:26;10.57;;;2.60;;